sensor_id;sensor_type;location;lat;lon;timestamp;pressure;altitude;pressure_sealevel;temperature;humidity
26978;BME280;56314;48.088;11.642;2022-07-17T00:00:17;96248.94;;;17.01;53.64
26978;BME280;56314;48.088;11.642;2022-07-17T00:02:42;96248.63;;;16.95;53.38
26978;BME280;56314;48.088;11.642;2022-07-17T00:05:08;96247.19;;;16.90;53.02
26978;BME280;56314;48.088;11.642;2022-07-17T00:07:34;96253.75;;;16.86;53.69
26978;BME280;56314;48.088;11.642;2022-07-17T00:09:59;96245.91;;;16.85;53.26
26978;BME280;56314;48.088;11.642;2022-07-17T00:12:25;96238.78;;;16.75;nan
26978;BME280;56314;48.088;11.642;2022-07-17T00:14:50;96240.31;;;16.78;55.26
26978;BME280;56314;48.088;11.642;2022-07-17T00:17:16;96245.38;;;16.81;55.76
26978;BME280;56314;48.088;11.642;2022-07-17T00:19:41;96249.41;;;16.75;55.60
26978;BME280;56314;48.088;11.642;2022-07-17T00:22:07;96244.91;;;16.66;56.79
26978;BME280;56314;48.088;11.642;2022-07-17T00:24:32;96247.53;;;16.56;55.69
26978;BME280;56314;48.088;11.642;2022-07-17T00:26:58;96249.06;;;16.49;55.49
26978;BME280;56314;48.088;11.642;2022-07-17T00:29:23;96256.69;;;16.42;55.93
26978;BME280;56314;48.088;11.642;2022-07-17T00:31:49;96251.34;;;16.23;56.59
26978;BME280;56314;48.088;11.642;2022-07-17T00:34:14;96250.22;;;16.25;57.04
26978;BME280;56314;48.088;11.642;2022-07-17T00:36:40;96245.78;;;16.36;57.66
26978;BME280;56314;48.088;11.642;2022-07-17T00:39:05;96245.75;;;16.26;56.79
26978;BME280;56314;48.088;11.642;2022-07-17T00:41:31;96244.88;;;16.15;56.94
26978;BME280;56314;48.088;11.642;2022-07-17T00:44:08;96239.81;;;16.12;57.50
26978;BME280;56314;48.088;11.642;2022-07-17T00:46:34;96237.19;;;16.12;56.85
26978;BME280;56314;48.088;11.642;2022-07-17T00:49:00;96238.91;;;16.23;57.68
26978;BME280;56314;48.088;11.642;2022-07-17T00:51:25;96244.75;;;16.17;57.65
26978;BME280;56314;48.088;11.642;2022-07-17T00:53:51;96237.47;;;16.09;58.41
26978;BME280;56314;48.088;11.642;2022-07-17T00:56:17;96241.03;;;15.98;58.24
26978;BME280;56314;48.088;11.642;2022-07-17T00:58:45;96231.06;;;15.91;58.94
26978;BME280;56314;48.088;11.642;2022-07-17T01:01:13;96237.09;;;15.93;58.99
26978;BME280;56314;48.088;11.642;2022-07-17T01:03:38;96238.31;;;15.89;59.49
26978;BME280;56314;48.088;11.642;2022-07-17T01:06:04;96248.44;;;15.83;60.27
26978;BME280;56314;48.088;11.642;2022-07-17T01:08:30;96249.66;;;15.79;59.83
26978;BME280;56314;48.088;11.642;2022-07-17T01:10:57;96245.00;;;15.72;60.24
26978;BME280;56314;48.088;11.642;2022-07-17T01:13:22;96248.19;;;15.65;61.53
26978;BME280;56314;48.088;11.642;2022-07-17T01:15:48;96240.50;;;15.62;61.39
26978;BME280;56314;48.088;11.642;2022-07-17T01:18:14;96247.16;;;15.57;61.19
26978;BME280;56314;48.088;11.642;2022-07-17T01:20:42;96235.41;;;15.49;61.78
26978;BME280;56314;48.088;11.642;2022-07-17T01:23:08;96247.06;;;15.47;62.46
26978;BME280;56314;48.088;11.642;2022-07-17T01:25:34;96233.63;;;15.38;62.04
26978;BME280;56314;48.088;11.642;2022-07-17T01:28:00;96235.00;;;15.33;62.38
26978;BME280;56314;48.088;11.642;2022-07-17T01:30:26;96240.19;;;15.23;62.37
26978;BME280;56314;48.088;11.642;2022-07-17T01:32:52;96240.81;;;15.27;61.97
26978;BME280;56314;48.088;11.642;2022-07-17T01:35:18;96242.78;;;15.34;62.01
26978;BME280;56314;48.088;11.642;2022-07-17T01:37:45;96243.13;;;15.41;62.68
26978;BME280;56314;48.088;11.642;2022-07-17T01:40:12;96244.09;;;15.40;62.53
26978;BME280;56314;48.088;11.642;2022-07-17T01:42:38;96241.72;;;15.37;62.91
26978;BME280;56314;48.088;11.642;2022-07-17T01:45:05;96242.53;;;15.37;62.64
26978;BME280;56314;48.088;11.642;2022-07-17T01:47:30;96241.34;;;15.42;62.47
26978;BME280;56314;48.088;11.642;2022-07-17T01:49:58;96238.94;;;15.38;63.33
26978;BME280;56314;48.088;11.642;2022-07-17T01:52:24;96243.66;;;15.35;62.58
26978;BME280;56314;48.088;11.642;2022-07-17T01:54:51;96249.44;;;15.29;63.09
26978;BME280;56314;48.088;11.642;2022-07-17T01:57:16;96240.41;;;15.31;63.87
26978;BME280;56314;48.088;11.642;2022-07-17T01:59:42;96248.13;;;15.23;62.57
26978;BME280;56314;48.088;11.642;2022-07-17T02:02:08;96241.44;;;15.19;61.73
26978;BME280;56314;48.088;11.642;2022-07-17T02:04:35;96245.44;;;15.13;60.96
26978;BME280;56314;48.088;11.642;2022-07-17T02:07:01;96247.78;;;15.16;60.71
26978;BME280;56314;48.088;11.642;2022-07-17T02:09:27;96245.28;;;15.15;60.29
26978;BME280;56314;48.088;11.642;2022-07-17T02:11:52;96245.63;;;15.21;61.23
26978;BME280;56314;48.088;11.642;2022-07-17T02:14:18;96236.78;;;15.11;59.96
26978;BME280;56314;48.088;11.642;2022-07-17T02:16:43;96239.41;;;15.11;59.83
26978;BME280;56314;48.088;11.642;2022-07-17T02:19:09;96240.88;;;15.04;58.96
26978;BME280;56314;48.088;11.642;2022-07-17T02:21:34;96235.47;;;15.05;59.06
26978;BME280;56314;48.088;11.642;2022-07-17T02:23:59;96243.06;;;14.99;58.72
26978;BME280;56314;48.088;11.642;2022-07-17T02:26:25;96244.19;;;14.85;60.32
26978;BME280;56314;48.088;11.642;2022-07-17T02:28:50;96235.88;;;14.89;60.01
26978;BME280;56314;48.088;11.642;2022-07-17T02:31:15;96243.47;;;14.83;60.12
26978;BME280;56314;48.088;11.642;2022-07-17T02:33:41;96231.31;;;14.80;59.89
26978;BME280;56314;48.088;11.642;2022-07-17T02:36:06;96247.53;;;14.87;59.81
26978;BME280;56314;48.088;11.642;2022-07-17T02:38:32;96245.97;;;14.84;60.01
26978;BME280;56314;48.088;11.642;2022-07-17T02:40:57;96249.97;;;14.78;60.27
26978;BME280;56314;48.088;11.642;2022-07-17T02:43:22;96247.66;;;14.85;60.64
26978;BME280;56314;48.088;11.642;2022-07-17T02:45:48;96247.81;;;14.84;61.46
26978;BME280;56314;48.088;11.642;2022-07-17T02:48:13;96242.75;;;14.81;61.76
26978;BME280;56314;48.088;11.642;2022-07-17T02:50:38;96242.03;;;14.78;61.74
26978;BME280;56314;48.088;11.642;2022-07-17T02:53:04;96239.88;;;14.61;61.10
26978;BME280;56314;48.088;11.642;2022-07-17T02:55:29;96245.41;;;14.58;60.89
26978;BME280;56314;48.088;11.642;2022-07-17T02:57:54;96244.09;;;14.63;60.26
26978;BME280;56314;48.088;11.642;2022-07-17T03:00:20;96239.19;;;14.47;61.50
26978;BME280;56314;48.088;11.642;2022-07-17T03:02:46;96232.69;;;14.29;61.90
26978;BME280;56314;48.088;11.642;2022-07-17T03:05:13;96245.09;;;14.17;62.91
26978;BME280;56314;48.088;11.642;2022-07-17T03:07:39;96243.41;;;14.16;63.16
26978;BME280;56314;48.088;11.642;2022-07-17T03:10:05;96247.47;;;14.20;63.62
26978;BME280;56314;48.088;11.642;2022-07-17T03:12:30;96247.22;;;14.23;63.13
26978;BME280;56314;48.088;11.642;2022-07-17T03:14:56;96249.16;;;14.21;62.87
26978;BME280;56314;48.088;11.642;2022-07-17T03:17:21;96255.03;;;14.13;63.85
26978;BME280;56314;48.088;11.642;2022-07-17T03:19:47;96244.81;;;14.20;63.48
26978;BME280;56314;48.088;11.642;2022-07-17T03:22:12;96246.75;;;14.18;63.83
26978;BME280;56314;48.088;11.642;2022-07-17T03:24:37;96247.22;;;14.12;63.04
26978;BME280;56314;48.088;11.642;2022-07-17T03:27:03;96249.03;;;14.00;62.92
26978;BME280;56314;48.088;11.642;2022-07-17T03:29:28;96237.25;;;13.93;63.31
26978;BME280;56314;48.088;11.642;2022-07-17T03:31:54;96236.16;;;13.95;64.66
26978;BME280;56314;48.088;11.642;2022-07-17T03:34:19;96246.03;;;14.05;63.36
26978;BME280;56314;48.088;11.642;2022-07-17T03:36:44;96245.41;;;13.90;63.37
26978;BME280;56314;48.088;11.642;2022-07-17T03:39:10;96249.84;;;13.78;63.57
26978;BME280;56314;48.088;11.642;2022-07-17T03:41:35;96246.00;;;13.70;63.97
26978;BME280;56314;48.088;11.642;2022-07-17T03:44:01;96251.84;;;13.63;64.13
26978;BME280;56314;48.088;11.642;2022-07-17T03:46:26;96252.06;;;13.60;64.60
26978;BME280;56314;48.088;11.642;2022-07-17T03:48:52;96252.81;;;13.62;64.54
26978;BME280;56314;48.088;11.642;2022-07-17T03:51:17;96257.19;;;13.50;64.59
26978;BME280;56314;48.088;11.642;2022-07-17T03:53:43;96251.56;;;13.54;64.91
26978;BME280;56314;48.088;11.642;2022-07-17T03:56:08;96242.25;;;13.62;65.15
26978;BME280;56314;48.088;11.642;2022-07-17T03:58:34;96252.91;;;13.60;64.23
26978;BME280;56314;48.088;11.642;2022-07-17T04:01:00;96251.47;;;13.56;64.39
26978;BME280;56314;48.088;11.642;2022-07-17T04:03:25;96250.53;;;13.57;63.84
26978;BME280;56314;48.088;11.642;2022-07-17T04:05:51;96256.75;;;13.56;63.59
26978;BME280;56314;48.088;11.642;2022-07-17T04:08:16;96257.56;;;13.57;63.54
26978;BME280;56314;48.088;11.642;2022-07-17T04:10:43;96253.41;;;13.65;63.68
26978;BME280;56314;48.088;11.642;2022-07-17T04:13:09;96257.59;;;13.68;63.19
26978;BME280;56314;48.088;11.642;2022-07-17T04:15:34;96262.53;;;13.73;62.81
26978;BME280;56314;48.088;11.642;2022-07-17T04:18:20;96258.59;;;13.78;62.70
26978;BME280;56314;48.088;11.642;2022-07-17T04:20:47;96257.03;;;13.87;63.26
26978;BME280;56314;48.088;11.642;2022-07-17T04:23:12;96261.38;;;13.88;62.53
26978;BME280;56314;48.088;11.642;2022-07-17T04:25:38;96257.63;;;13.79;62.09
26978;BME280;56314;48.088;11.642;2022-07-17T04:28:04;96254.88;;;13.81;62.40
26978;BME280;56314;48.088;11.642;2022-07-17T04:30:29;96260.28;;;13.91;62.37
26978;BME280;56314;48.088;11.642;2022-07-17T04:32:55;96255.00;;;13.91;62.75
26978;BME280;56314;48.088;11.642;2022-07-17T04:35:20;96270.50;;;13.95;62.08
26978;BME280;56314;48.088;11.642;2022-07-17T04:37:45;96259.47;;;14.01;61.92
26978;BME280;56314;48.088;11.642;2022-07-17T04:40:11;96262.47;;;14.08;62.13
26978;BME280;56314;48.088;11.642;2022-07-17T04:42:37;96267.41;;;14.13;62.19
26978;BME280;56314;48.088;11.642;2022-07-17T04:45:03;96266.81;;;14.21;61.75
26978;BME280;56314;48.088;11.642;2022-07-17T04:47:29;96262.97;;;14.25;61.43
26978;BME280;56314;48.088;11.642;2022-07-17T04:49:56;96256.97;;;14.45;61.78
26978;BME280;56314;48.088;11.642;2022-07-17T04:52:21;96258.63;;;14.69;61.94
26978;BME280;56314;48.088;11.642;2022-07-17T04:54:46;96258.22;;;14.97;61.41
26978;BME280;56314;48.088;11.642;2022-07-17T04:57:12;96254.25;;;15.56;59.49
26978;BME280;56314;48.088;11.642;2022-07-17T04:59:37;96260.88;;;16.35;57.18
26978;BME280;56314;48.088;11.642;2022-07-17T05:02:03;96256.22;;;17.29;53.77
26978;BME280;56314;48.088;11.642;2022-07-17T05:04:29;96240.16;;;18.55;49.92
26978;BME280;56314;48.088;11.642;2022-07-17T05:06:54;96234.22;;;19.97;46.05
26978;BME280;56314;48.088;11.642;2022-07-17T05:09:20;96233.97;;;20.78;44.71
26978;BME280;56314;48.088;11.642;2022-07-17T05:11:45;96227.78;;;21.87;42.38
26978;BME280;56314;48.088;11.642;2022-07-17T05:14:10;96232.13;;;21.71;41.76
26978;BME280;56314;48.088;11.642;2022-07-17T05:16:36;96238.88;;;20.56;44.71
26978;BME280;56314;48.088;11.642;2022-07-17T05:19:01;96235.03;;;19.53;45.67
26978;BME280;56314;48.088;11.642;2022-07-17T05:21:26;96238.63;;;19.26;47.55
26978;BME280;56314;48.088;11.642;2022-07-17T05:23:52;96230.47;;;20.08;44.02
26978;BME280;56314;48.088;11.642;2022-07-17T05:26:17;96237.53;;;20.95;43.63
26978;BME280;56314;48.088;11.642;2022-07-17T05:28:42;96232.78;;;21.73;42.32
26978;BME280;56314;48.088;11.642;2022-07-17T05:31:08;96228.81;;;22.58;40.96
26978;BME280;56314;48.088;11.642;2022-07-17T05:33:33;96221.09;;;23.27;39.45
26978;BME280;56314;48.088;11.642;2022-07-17T05:35:59;96227.25;;;23.97;36.88
26978;BME280;56314;48.088;11.642;2022-07-17T05:38:24;96224.97;;;24.39;37.67
26978;BME280;56314;48.088;11.642;2022-07-17T05:40:49;96225.97;;;24.68;36.89
26978;BME280;56314;48.088;11.642;2022-07-17T05:43:15;96222.75;;;25.24;35.19
26978;BME280;56314;48.088;11.642;2022-07-17T05:45:40;96219.81;;;25.62;35.56
26978;BME280;56314;48.088;11.642;2022-07-17T05:48:06;96222.75;;;25.24;32.74
26978;BME280;56314;48.088;11.642;2022-07-17T05:50:32;96213.88;;;25.67;32.48
26978;BME280;56314;48.088;11.642;2022-07-17T05:52:58;96210.56;;;26.22;32.19
26978;BME280;56314;48.088;11.642;2022-07-17T05:55:23;96207.84;;;26.99;29.51
26978;BME280;56314;48.088;11.642;2022-07-17T05:57:49;96206.91;;;26.71;31.32
26978;BME280;56314;48.088;11.642;2022-07-17T06:00:14;96206.81;;;26.93;30.70
26978;BME280;56314;48.088;11.642;2022-07-17T06:02:40;96210.28;;;27.49;29.12
26978;BME280;56314;48.088;11.642;2022-07-17T06:05:05;96217.78;;;27.60;29.06
26978;BME280;56314;48.088;11.642;2022-07-17T06:07:31;96219.84;;;27.85;27.52
26978;BME280;56314;48.088;11.642;2022-07-17T06:09:56;96220.69;;;27.72;28.86
26978;BME280;56314;48.088;11.642;2022-07-17T06:12:22;96216.31;;;27.85;28.03
26978;BME280;56314;48.088;11.642;2022-07-17T06:14:47;96223.16;;;27.87;28.05
26978;BME280;56314;48.088;11.642;2022-07-17T06:17:12;96213.81;;;28.30;27.57
26978;BME280;56314;48.088;11.642;2022-07-17T06:19:38;96223.69;;;28.63;28.36
26978;BME280;56314;48.088;11.642;2022-07-17T06:22:04;96215.22;;;29.12;26.30
26978;BME280;56314;48.088;11.642;2022-07-17T06:24:29;96211.03;;;29.16;27.10
26978;BME280;56314;48.088;11.642;2022-07-17T06:26:55;96221.16;;;29.34;26.58
26978;BME280;56314;48.088;11.642;2022-07-17T06:29:20;96220.75;;;29.30;25.68
26978;BME280;56314;48.088;11.642;2022-07-17T06:31:45;96216.56;;;29.67;25.75
26978;BME280;56314;48.088;11.642;2022-07-17T06:34:11;96220.09;;;29.67;25.39
26978;BME280;56314;48.088;11.642;2022-07-17T06:36:36;96213.59;;;30.25;24.60
26978;BME280;56314;48.088;11.642;2022-07-17T06:39:02;96211.28;;;30.48;23.62
26978;BME280;56314;48.088;11.642;2022-07-17T06:41:27;96216.31;;;30.25;25.19
26978;BME280;56314;48.088;11.642;2022-07-17T06:43:52;96219.06;;;30.63;25.04
26978;BME280;56314;48.088;11.642;2022-07-17T06:46:18;96218.69;;;30.96;23.03
26978;BME280;56314;48.088;11.642;2022-07-17T06:48:43;96218.38;;;31.05;23.43
26978;BME280;56314;48.088;11.642;2022-07-17T06:51:09;96217.28;;;31.55;23.49
26978;BME280;56314;48.088;11.642;2022-07-17T06:53:34;96215.97;;;31.45;23.81
26978;BME280;56314;48.088;11.642;2022-07-17T06:56:00;96215.88;;;31.22;23.49
26978;BME280;56314;48.088;11.642;2022-07-17T06:58:25;96222.09;;;31.53;23.09
26978;BME280;56314;48.088;11.642;2022-07-17T07:00:50;96222.31;;;31.39;22.37
26978;BME280;56314;48.088;11.642;2022-07-17T07:03:16;96225.59;;;31.72;21.69
26978;BME280;56314;48.088;11.642;2022-07-17T07:05:41;96227.53;;;31.95;22.08
26978;BME280;56314;48.088;11.642;2022-07-17T07:08:07;96233.69;;;32.14;21.74
26978;BME280;56314;48.088;11.642;2022-07-17T07:10:32;96231.94;;;32.20;21.56
26978;BME280;56314;48.088;11.642;2022-07-17T07:12:57;96232.75;;;32.08;21.10
26978;BME280;56314;48.088;11.642;2022-07-17T07:15:23;96227.44;;;32.02;22.09
26978;BME280;56314;48.088;11.642;2022-07-17T07:17:51;96221.19;;;32.25;21.64
26978;BME280;56314;48.088;11.642;2022-07-17T07:20:17;96226.50;;;32.55;21.79
26978;BME280;56314;48.088;11.642;2022-07-17T07:22:42;96222.25;;;32.72;20.79
26978;BME280;56314;48.088;11.642;2022-07-17T07:25:08;96236.03;;;32.94;20.75
26978;BME280;56314;48.088;11.642;2022-07-17T07:27:34;96243.28;;;32.76;21.06
26978;BME280;56314;48.088;11.642;2022-07-17T07:29:59;96235.34;;;33.27;21.26
26978;BME280;56314;48.088;11.642;2022-07-17T07:32:25;96229.38;;;33.13;21.45
26978;BME280;56314;48.088;11.642;2022-07-17T07:34:50;96242.66;;;33.27;20.13
26978;BME280;56314;48.088;11.642;2022-07-17T07:37:15;96237.06;;;33.05;20.36
26978;BME280;56314;48.088;11.642;2022-07-17T07:39:41;96229.09;;;32.74;20.66
26978;BME280;56314;48.088;11.642;2022-07-17T07:42:06;96225.34;;;33.45;19.54
26978;BME280;56314;48.088;11.642;2022-07-17T07:44:32;96226.63;;;33.71;19.87
26978;BME280;56314;48.088;11.642;2022-07-17T07:46:58;96231.09;;;33.77;19.64
26978;BME280;56314;48.088;11.642;2022-07-17T07:49:24;96231.97;;;34.12;19.06
26978;BME280;56314;48.088;11.642;2022-07-17T07:51:50;96232.44;;;34.09;18.86
26978;BME280;56314;48.088;11.642;2022-07-17T07:54:15;96230.59;;;33.64;19.05
26978;BME280;56314;48.088;11.642;2022-07-17T07:56:40;96231.75;;;33.68;19.72
26978;BME280;56314;48.088;11.642;2022-07-17T07:59:06;96230.59;;;33.81;19.79
26978;BME280;56314;48.088;11.642;2022-07-17T08:01:31;96221.66;;;33.68;18.49
26978;BME280;56314;48.088;11.642;2022-07-17T08:03:56;96226.69;;;33.88;18.27
26978;BME280;56314;48.088;11.642;2022-07-17T08:06:22;96233.81;;;32.79;18.54
26978;BME280;56314;48.088;11.642;2022-07-17T08:08:47;96238.00;;;32.46;19.48
26978;BME280;56314;48.088;11.642;2022-07-17T08:11:13;96230.25;;;32.90;19.49
26978;BME280;56314;48.088;11.642;2022-07-17T08:13:39;96233.19;;;33.00;18.49
26978;BME280;56314;48.088;11.642;2022-07-17T08:16:06;96235.41;;;33.33;18.59
26978;BME280;56314;48.088;11.642;2022-07-17T08:18:31;96235.88;;;33.41;18.85
26978;BME280;56314;48.088;11.642;2022-07-17T08:20:56;96232.97;;;33.60;19.40
26978;BME280;56314;48.088;11.642;2022-07-17T08:23:22;96236.72;;;33.42;19.94
26978;BME280;56314;48.088;11.642;2022-07-17T08:25:47;96234.00;;;34.05;18.03
26978;BME280;56314;48.088;11.642;2022-07-17T08:28:13;96231.78;;;34.19;17.81
26978;BME280;56314;48.088;11.642;2022-07-17T08:30:39;96232.44;;;33.92;18.68
26978;BME280;56314;48.088;11.642;2022-07-17T08:33:06;96237.16;;;33.97;18.88
26978;BME280;56314;48.088;11.642;2022-07-17T08:35:33;96239.81;;;34.09;17.64
26978;BME280;56314;48.088;11.642;2022-07-17T08:37:59;96245.59;;;33.66;18.77
26978;BME280;56314;48.088;11.642;2022-07-17T08:40:30;96250.22;;;33.66;18.45
26978;BME280;56314;48.088;11.642;2022-07-17T08:42:57;96248.59;;;33.82;17.54
26978;BME280;56314;48.088;11.642;2022-07-17T08:45:24;96249.88;;;33.62;18.21
26978;BME280;56314;48.088;11.642;2022-07-17T08:47:50;96252.66;;;33.50;19.01
26978;BME280;56314;48.088;11.642;2022-07-17T08:50:21;96254.47;;;33.44;18.90
26978;BME280;56314;48.088;11.642;2022-07-17T08:52:47;96260.31;;;33.82;18.89
26978;BME280;56314;48.088;11.642;2022-07-17T08:55:13;96256.19;;;33.80;18.16
26978;BME280;56314;48.088;11.642;2022-07-17T08:57:41;96249.88;;;33.62;18.95
26978;BME280;56314;48.088;11.642;2022-07-17T09:00:08;96254.19;;;33.75;18.66
26978;BME280;56314;48.088;11.642;2022-07-17T09:02:39;96250.47;;;33.81;18.78
26978;BME280;56314;48.088;11.642;2022-07-17T09:05:05;96252.84;;;33.89;18.57
26978;BME280;56314;48.088;11.642;2022-07-17T09:07:31;96251.38;;;33.87;17.75
26978;BME280;56314;48.088;11.642;2022-07-17T09:09:57;96253.44;;;33.63;18.93
26978;BME280;56314;48.088;11.642;2022-07-17T09:12:28;96248.38;;;34.00;18.44
26978;BME280;56314;48.088;11.642;2022-07-17T09:14:54;96256.16;;;34.09;17.39
26978;BME280;56314;48.088;11.642;2022-07-17T09:17:20;96249.22;;;34.01;17.84
26978;BME280;56314;48.088;11.642;2022-07-17T09:19:46;96252.19;;;34.33;17.95
26978;BME280;56314;48.088;11.642;2022-07-17T09:24:48;96244.16;;;34.83;18.67
26978;BME280;56314;48.088;11.642;2022-07-17T09:32:33;96229.91;;;35.42;16.78
26978;BME280;56314;48.088;11.642;2022-07-17T09:35:00;96240.63;;;35.49;16.64
26978;BME280;56314;48.088;11.642;2022-07-17T09:37:28;96238.19;;;35.30;16.86
26978;BME280;56314;48.088;11.642;2022-07-17T09:39:54;96241.88;;;35.19;16.42
26978;BME280;56314;48.088;11.642;2022-07-17T09:42:28;96245.56;;;34.86;17.17
26978;BME280;56314;48.088;11.642;2022-07-17T09:44:56;96250.53;;;35.33;16.78
26978;BME280;56314;48.088;11.642;2022-07-17T09:47:23;96244.31;;;35.16;17.47
26978;BME280;56314;48.088;11.642;2022-07-17T09:49:50;96248.16;;;35.42;17.37
26978;BME280;56314;48.088;11.642;2022-07-17T09:52:17;96244.38;;;35.21;16.53
26978;BME280;56314;48.088;11.642;2022-07-17T09:54:44;96248.22;;;35.25;16.49
26978;BME280;56314;48.088;11.642;2022-07-17T09:57:11;96247.09;;;35.21;16.45
26978;BME280;56314;48.088;11.642;2022-07-17T09:59:37;96252.94;;;35.29;16.03
26978;BME280;56314;48.088;11.642;2022-07-17T10:02:03;96257.03;;;34.65;17.53
26978;BME280;56314;48.088;11.642;2022-07-17T10:04:29;96241.91;;;34.97;18.05
26978;BME280;56314;48.088;11.642;2022-07-17T10:06:55;96238.56;;;35.39;16.63
26978;BME280;56314;48.088;11.642;2022-07-17T10:09:21;96245.63;;;35.35;17.21
26978;BME280;56314;48.088;11.642;2022-07-17T10:11:47;96243.94;;;35.56;16.43
26978;BME280;56314;48.088;11.642;2022-07-17T10:14:14;96239.88;;;35.09;17.14
26978;BME280;56314;48.088;11.642;2022-07-17T10:16:40;96246.06;;;35.27;16.62
26978;BME280;56314;48.088;11.642;2022-07-17T10:19:16;96247.41;;;35.24;17.14
26978;BME280;56314;48.088;11.642;2022-07-17T10:22:01;96244.94;;;35.45;17.15
26978;BME280;56314;48.088;11.642;2022-07-17T10:24:29;96249.69;;;35.55;16.68
26978;BME280;56314;48.088;11.642;2022-07-17T10:26:57;96252.53;;;35.43;16.80
26978;BME280;56314;48.088;11.642;2022-07-17T10:29:26;96251.38;;;35.61;17.30
26978;BME280;56314;48.088;11.642;2022-07-17T10:31:52;96258.34;;;35.47;16.95
26978;BME280;56314;48.088;11.642;2022-07-17T10:34:18;96258.25;;;35.19;16.32
26978;BME280;56314;48.088;11.642;2022-07-17T10:36:44;96255.09;;;35.27;16.40
26978;BME280;56314;48.088;11.642;2022-07-17T10:39:20;96257.41;;;34.74;17.22
26978;BME280;56314;48.088;11.642;2022-07-17T10:41:57;96258.50;;;34.73;16.29
26978;BME280;56314;48.088;11.642;2022-07-17T10:44:27;96254.47;;;34.59;17.48
26978;BME280;56314;48.088;11.642;2022-07-17T10:46:54;96258.63;;;34.27;17.92
26978;BME280;56314;48.088;11.642;2022-07-17T10:49:20;96255.47;;;34.18;17.72
26978;BME280;56314;48.088;11.642;2022-07-17T10:51:46;96247.88;;;34.03;19.04
26978;BME280;56314;48.088;11.642;2022-07-17T10:54:11;96250.44;;;33.93;18.18
26978;BME280;56314;48.088;11.642;2022-07-17T10:56:38;96243.38;;;33.80;18.44
26978;BME280;56314;48.088;11.642;2022-07-17T10:59:06;96247.19;;;33.79;18.80
26978;BME280;56314;48.088;11.642;2022-07-17T11:01:31;96249.44;;;34.16;17.97
26978;BME280;56314;48.088;11.642;2022-07-17T11:04:00;96238.06;;;34.19;18.63
26978;BME280;56314;48.088;11.642;2022-07-17T11:06:29;96244.00;;;34.50;17.39
26978;BME280;56314;48.088;11.642;2022-07-17T11:08:56;96234.72;;;34.34;18.90
26978;BME280;56314;48.088;11.642;2022-07-17T11:11:46;96229.16;;;34.63;17.07
26978;BME280;56314;48.088;11.642;2022-07-17T11:16:46;96235.16;;;34.43;18.63
26978;BME280;56314;48.088;11.642;2022-07-17T11:19:12;96226.19;;;34.65;17.74
26978;BME280;56314;48.088;11.642;2022-07-17T11:21:47;96233.41;;;34.54;17.83
26978;BME280;56314;48.088;11.642;2022-07-17T11:24:13;96223.09;;;34.78;19.33
26978;BME280;56314;48.088;11.642;2022-07-17T11:26:39;96215.16;;;34.77;18.19
26978;BME280;56314;48.088;11.642;2022-07-17T11:29:04;96215.09;;;34.49;17.01
26978;BME280;56314;48.088;11.642;2022-07-17T11:31:30;96219.06;;;34.07;17.83
26978;BME280;56314;48.088;11.642;2022-07-17T11:34:04;96213.38;;;34.09;18.16
26978;BME280;56314;48.088;11.642;2022-07-17T11:36:36;96214.75;;;33.77;17.68
26978;BME280;56314;48.088;11.642;2022-07-17T11:39:14;96205.56;;;33.50;18.38
26978;BME280;56314;48.088;11.642;2022-07-17T11:41:41;96205.28;;;33.34;17.99
26978;BME280;56314;48.088;11.642;2022-07-17T11:44:09;96200.69;;;33.52;19.09
26978;BME280;56314;48.088;11.642;2022-07-17T11:46:35;96200.19;;;33.38;18.68
26978;BME280;56314;48.088;11.642;2022-07-17T11:49:01;96200.84;;;33.62;18.98
26978;BME280;56314;48.088;11.642;2022-07-17T11:51:57;96196.69;;;33.71;17.38
26978;BME280;56314;48.088;11.642;2022-07-17T11:54:23;96192.22;;;33.82;18.89
26978;BME280;56314;48.088;11.642;2022-07-17T11:56:54;96187.34;;;33.84;18.74
26978;BME280;56314;48.088;11.642;2022-07-17T11:59:31;96190.63;;;33.35;18.65
26978;BME280;56314;48.088;11.642;2022-07-17T12:02:09;96189.03;;;33.39;19.02
26978;BME280;56314;48.088;11.642;2022-07-17T12:04:35;96188.13;;;33.51;19.61
26978;BME280;56314;48.088;11.642;2022-07-17T12:07:02;96188.09;;;33.34;18.69
26978;BME280;56314;48.088;11.642;2022-07-17T12:09:32;96187.09;;;33.23;19.19
26978;BME280;56314;48.088;11.642;2022-07-17T12:12:01;96181.78;;;33.16;19.56
26978;BME280;56314;48.088;11.642;2022-07-17T12:14:26;96191.91;;;33.04;19.67
26978;BME280;56314;48.088;11.642;2022-07-17T12:16:52;96190.56;;;33.06;19.80
26978;BME280;56314;48.088;11.642;2022-07-17T12:19:22;96187.00;;;32.89;19.42
26978;BME280;56314;48.088;11.642;2022-07-17T12:21:55;96183.59;;;32.58;18.78
26978;BME280;56314;48.088;11.642;2022-07-17T12:26:47;96180.50;;;32.66;18.95
26978;BME280;56314;48.088;11.642;2022-07-17T12:29:13;96189.75;;;32.65;19.42
26978;BME280;56314;48.088;11.642;2022-07-17T12:31:39;96182.06;;;32.62;19.75
26978;BME280;56314;48.088;11.642;2022-07-17T12:34:04;96171.66;;;32.70;19.58
26978;BME280;56314;48.088;11.642;2022-07-17T12:36:29;96185.13;;;32.65;20.31
26978;BME280;56314;48.088;11.642;2022-07-17T12:38:55;96179.78;;;32.82;19.70
26978;BME280;56314;48.088;11.642;2022-07-17T12:41:20;96181.56;;;32.89;19.52
26978;BME280;56314;48.088;11.642;2022-07-17T12:43:46;96175.41;;;32.81;18.80
26978;BME280;56314;48.088;11.642;2022-07-17T12:46:11;96178.06;;;32.52;20.01
26978;BME280;56314;48.088;11.642;2022-07-17T12:48:37;96178.03;;;32.64;19.73
26978;BME280;56314;48.088;11.642;2022-07-17T12:51:05;96178.16;;;32.58;19.95
26978;BME280;56314;48.088;11.642;2022-07-17T12:53:31;96177.00;;;32.30;19.55
26978;BME280;56314;48.088;11.642;2022-07-17T12:55:56;96181.72;;;31.87;19.92
26978;BME280;56314;48.088;11.642;2022-07-17T12:58:22;96178.19;;;31.74;20.52